sensor_id;sensor_type;location;lat;lon;timestamp;temperature;humidity
26336;DHT22;14047;50.936;4.654;2022-10-01T00:00:53;13.30;99.90
26336;DHT22;14047;50.936;4.654;2022-10-01T00:03:21;13.10;99.90
26336;DHT22;14047;50.936;4.654;2022-10-01T00:05:53;12.80;99.90
26336;DHT22;14047;50.936;4.654;2022-10-01T00:08:22;12.70;99.90
26336;DHT22;14047;50.936;4.654;2022-10-01T00:10:47;12.70;99.90
26336;DHT22;14047;50.936;4.654;2022-10-01T00:13:13;12.50;99.90
26336;DHT22;14047;50.936;4.654;2022-10-01T00:15:39;12.60;99.90
26336;DHT22;14047;50.936;4.654;2022-10-01T00:18:05;12.60;99.90
26336;DHT22;14047;50.936;4.654;2022-10-01T00:20:33;12.70;99.90
26336;DHT22;14047;50.936;4.654;2022-10-01T00:22:59;12.80;99.90
26336;DHT22;14047;50.936;4.654;2022-10-01T00:25:25;12.90;99.90
26336;DHT22;14047;50.936;4.654;2022-10-01T00:27:51;13.00;99.90
26336;DHT22;14047;50.936;4.654;2022-10-01T00:30:17;13.00;99.90
26336;DHT22;14047;50.936;4.654;2022-10-01T00:32:42;13.00;99.90
26336;DHT22;14047;50.936;4.654;2022-10-01T00:35:08;13.00;99.90
26336;DHT22;14047;50.936;4.654;2022-10-01T00:37:37;13.00;99.90
26336;DHT22;14047;50.936;4.654;2022-10-01T00:40:06;13.00;99.90
26336;DHT22;14047;50.936;4.654;2022-10-01T00:42:32;13.00;99.90
26336;DHT22;14047;50.936;4.654;2022-10-01T00:44:58;13.00;99.90
26336;DHT22;14047;50.936;4.654;2022-10-01T00:47:37;13.00;99.90
26336;DHT22;14047;50.936;4.654;2022-10-01T00:52:42;13.00;99.90
26336;DHT22;14047;50.936;4.654;2022-10-01T00:55:14;13.10;99.90
26336;DHT22;14047;50.936;4.654;2022-10-01T00:57:41;13.00;99.90
26336;DHT22;14047;50.936;4.654;2022-10-01T01:00:09;13.00;99.90
26336;DHT22;14047;50.936;4.654;2022-10-01T01:02:35;13.00;99.90
26336;DHT22;14047;50.936;4.654;2022-10-01T01:05:01;12.90;99.90
26336;DHT22;14047;50.936;4.654;2022-10-01T01:07:28;12.80;99.90
26336;DHT22;14047;50.936;4.654;2022-10-01T01:09:55;12.70;99.90
26336;DHT22;14047;50.936;4.654;2022-10-01T01:12:43;12.50;99.90
26336;DHT22;14047;50.936;4.654;2022-10-01T01:17:51;12.50;99.90
26336;DHT22;14047;50.936;4.654;2022-10-01T01:23:01;12.50;99.90
26336;DHT22;14047;50.936;4.654;2022-10-01T01:25:39;12.40;99.90
26336;DHT22;14047;50.936;4.654;2022-10-01T01:28:25;12.40;99.90
26336;DHT22;14047;50.936;4.654;2022-10-01T01:30:59;12.50;99.90
26336;DHT22;14047;50.936;4.654;2022-10-01T01:33:27;12.40;99.90
26336;DHT22;14047;50.936;4.654;2022-10-01T01:35:58;12.40;99.90
26336;DHT22;14047;50.936;4.654;2022-10-01T01:38:33;12.50;99.90
26336;DHT22;14047;50.936;4.654;2022-10-01T01:41:03;12.60;99.90
26336;DHT22;14047;50.936;4.654;2022-10-01T01:43:32;12.50;99.90
26336;DHT22;14047;50.936;4.654;2022-10-01T01:46:01;12.40;99.90
26336;DHT22;14047;50.936;4.654;2022-10-01T01:48:30;12.40;99.90
26336;DHT22;14047;50.936;4.654;2022-10-01T01:51:07;12.40;99.90
26336;DHT22;14047;50.936;4.654;2022-10-01T01:53:34;12.40;99.90
26336;DHT22;14047;50.936;4.654;2022-10-01T01:56:00;12.50;99.90
26336;DHT22;14047;50.936;4.654;2022-10-01T01:58:27;12.40;99.90
26336;DHT22;14047;50.936;4.654;2022-10-01T02:00:53;12.60;99.90
26336;DHT22;14047;50.936;4.654;2022-10-01T02:03:20;12.50;99.90
26336;DHT22;14047;50.936;4.654;2022-10-01T02:06:13;12.50;99.90
26336;DHT22;14047;50.936;4.654;2022-10-01T02:08:55;12.60;99.90
26336;DHT22;14047;50.936;4.654;2022-10-01T02:11:27;12.50;99.90
26336;DHT22;14047;50.936;4.654;2022-10-01T02:21:59;12.60;99.90
26336;DHT22;14047;50.936;4.654;2022-10-01T02:24:48;12.60;99.90
26336;DHT22;14047;50.936;4.654;2022-10-01T02:27:49;12.60;99.90
26336;DHT22;14047;50.936;4.654;2022-10-01T02:30:17;12.50;99.90
26336;DHT22;14047;50.936;4.654;2022-10-01T02:32:44;12.50;99.90
26336;DHT22;14047;50.936;4.654;2022-10-01T02:35:14;12.40;99.90
26336;DHT22;14047;50.936;4.654;2022-10-01T02:37:42;12.20;99.90
26336;DHT22;14047;50.936;4.654;2022-10-01T02:40:10;12.20;99.90
26336;DHT22;14047;50.936;4.654;2022-10-01T02:42:42;12.30;99.90
26336;DHT22;14047;50.936;4.654;2022-10-01T02:45:10;12.30;99.90
26336;DHT22;14047;50.936;4.654;2022-10-01T02:47:44;12.30;99.90
26336;DHT22;14047;50.936;4.654;2022-10-01T02:50:12;12.40;99.90
26336;DHT22;14047;50.936;4.654;2022-10-01T02:52:52;12.40;99.90
26336;DHT22;14047;50.936;4.654;2022-10-01T02:55:25;12.60;99.90
26336;DHT22;14047;50.936;4.654;2022-10-01T02:57:53;12.70;99.90
26336;DHT22;14047;50.936;4.654;2022-10-01T03:00:19;12.70;99.90
26336;DHT22;14047;50.936;4.654;2022-10-01T03:02:46;12.60;99.90
26336;DHT22;14047;50.936;4.654;2022-10-01T03:05:11;12.60;99.90
26336;DHT22;14047;50.936;4.654;2022-10-01T03:07:37;12.70;99.90
26336;DHT22;14047;50.936;4.654;2022-10-01T03:10:05;12.70;99.90
26336;DHT22;14047;50.936;4.654;2022-10-01T03:12:31;12.90;99.90
26336;DHT22;14047;50.936;4.654;2022-10-01T03:14:57;13.00;99.90
26336;DHT22;14047;50.936;4.654;2022-10-01T03:17:23;13.00;99.90
26336;DHT22;14047;50.936;4.654;2022-10-01T03:19:48;13.00;99.90
26336;DHT22;14047;50.936;4.654;2022-10-01T03:22:15;13.10;99.90
26336;DHT22;14047;50.936;4.654;2022-10-01T03:24:47;13.30;99.90
26336;DHT22;14047;50.936;4.654;2022-10-01T03:27:13;13.30;99.90
26336;DHT22;14047;50.936;4.654;2022-10-01T03:29:39;13.30;99.90
26336;DHT22;14047;50.936;4.654;2022-10-01T03:32:04;13.30;99.90
26336;DHT22;14047;50.936;4.654;2022-10-01T03:34:30;13.30;99.90
26336;DHT22;14047;50.936;4.654;2022-10-01T03:36:55;13.30;99.90
26336;DHT22;14047;50.936;4.654;2022-10-01T03:39:21;13.20;99.90
26336;DHT22;14047;50.936;4.654;2022-10-01T03:41:46;13.30;99.90
26336;DHT22;14047;50.936;4.654;2022-10-01T03:44:12;13.40;99.90
26336;DHT22;14047;50.936;4.654;2022-10-01T03:46:38;13.30;99.90
26336;DHT22;14047;50.936;4.654;2022-10-01T03:49:04;13.30;99.90
26336;DHT22;14047;50.936;4.654;2022-10-01T03:51:30;13.10;99.90
26336;DHT22;14047;50.936;4.654;2022-10-01T03:53:56;13.00;99.90
26336;DHT22;14047;50.936;4.654;2022-10-01T03:56:22;13.10;99.90
26336;DHT22;14047;50.936;4.654;2022-10-01T03:58:48;13.00;99.90
26336;DHT22;14047;50.936;4.654;2022-10-01T04:01:14;12.90;99.90
26336;DHT22;14047;50.936;4.654;2022-10-01T04:03:39;13.00;99.90
26336;DHT22;14047;50.936;4.654;2022-10-01T04:06:06;13.10;99.90
26336;DHT22;14047;50.936;4.654;2022-10-01T04:08:32;13.20;99.90
26336;DHT22;14047;50.936;4.654;2022-10-01T04:10:57;13.30;99.90
26336;DHT22;14047;50.936;4.654;2022-10-01T04:13:25;13.30;99.90
26336;DHT22;14047;50.936;4.654;2022-10-01T04:15:51;13.40;99.90
26336;DHT22;14047;50.936;4.654;2022-10-01T04:18:16;13.40;99.90
26336;DHT22;14047;50.936;4.654;2022-10-01T04:20:43;13.40;99.90
26336;DHT22;14047;50.936;4.654;2022-10-01T04:23:09;13.30;99.90
26336;DHT22;14047;50.936;4.654;2022-10-01T04:25:35;13.30;99.90
26336;DHT22;14047;50.936;4.654;2022-10-01T04:28:03;13.30;99.90
26336;DHT22;14047;50.936;4.654;2022-10-01T04:30:34;13.30;99.90
26336;DHT22;14047;50.936;4.654;2022-10-01T04:33:00;13.40;99.90
26336;DHT22;14047;50.936;4.654;2022-10-01T04:35:27;13.40;99.90
26336;DHT22;14047;50.936;4.654;2022-10-01T04:38:00;13.40;99.90
26336;DHT22;14047;50.936;4.654;2022-10-01T04:40:29;13.50;99.90
26336;DHT22;14047;50.936;4.654;2022-10-01T04:42:54;13.50;99.90
26336;DHT22;14047;50.936;4.654;2022-10-01T04:45:20;13.50;99.90
26336;DHT22;14047;50.936;4.654;2022-10-01T04:47:51;13.50;99.90
26336;DHT22;14047;50.936;4.654;2022-10-01T04:50:19;13.50;99.90
26336;DHT22;14047;50.936;4.654;2022-10-01T04:52:45;13.50;99.90
26336;DHT22;14047;50.936;4.654;2022-10-01T04:55:11;13.60;99.90
26336;DHT22;14047;50.936;4.654;2022-10-01T04:57:37;13.60;99.90
26336;DHT22;14047;50.936;4.654;2022-10-01T05:00:05;13.40;99.90
26336;DHT22;14047;50.936;4.654;2022-10-01T05:02:31;13.40;99.90
26336;DHT22;14047;50.936;4.654;2022-10-01T05:04:59;13.40;99.90
26336;DHT22;14047;50.936;4.654;2022-10-01T05:07:25;13.50;99.90
26336;DHT22;14047;50.936;4.654;2022-10-01T05:09:51;13.40;99.90
26336;DHT22;14047;50.936;4.654;2022-10-01T05:12:16;13.50;99.90
26336;DHT22;14047;50.936;4.654;2022-10-01T05:14:42;13.50;99.90
26336;DHT22;14047;50.936;4.654;2022-10-01T05:17:07;13.60;99.90
26336;DHT22;14047;50.936;4.654;2022-10-01T05:19:33;13.60;99.90
26336;DHT22;14047;50.936;4.654;2022-10-01T05:21:59;13.60;99.90
26336;DHT22;14047;50.936;4.654;2022-10-01T05:24:24;13.60;99.90
26336;DHT22;14047;50.936;4.654;2022-10-01T05:26:50;13.60;99.90
26336;DHT22;14047;50.936;4.654;2022-10-01T05:29:18;13.60;99.90
26336;DHT22;14047;50.936;4.654;2022-10-01T05:31:44;13.50;99.90
26336;DHT22;14047;50.936;4.654;2022-10-01T05:34:10;13.50;99.90
26336;DHT22;14047;50.936;4.654;2022-10-01T05:36:36;13.60;99.90
26336;DHT22;14047;50.936;4.654;2022-10-01T05:39:01;13.70;99.90
26336;DHT22;14047;50.936;4.654;2022-10-01T05:41:27;13.60;99.90
26336;DHT22;14047;50.936;4.654;2022-10-01T05:43:52;13.60;99.90
26336;DHT22;14047;50.936;4.654;2022-10-01T05:46:18;13.60;99.90
26336;DHT22;14047;50.936;4.654;2022-10-01T05:48:44;13.50;99.90
26336;DHT22;14047;50.936;4.654;2022-10-01T05:51:10;13.60;99.90
26336;DHT22;14047;50.936;4.654;2022-10-01T05:53:38;13.60;99.90
26336;DHT22;14047;50.936;4.654;2022-10-01T05:56:05;13.60;99.90
26336;DHT22;14047;50.936;4.654;2022-10-01T05:58:31;13.60;99.90
26336;DHT22;14047;50.936;4.654;2022-10-01T06:00:57;13.60;99.90
26336;DHT22;14047;50.936;4.654;2022-10-01T06:03:22;13.60;99.90
26336;DHT22;14047;50.936;4.654;2022-10-01T06:05:48;13.80;99.90
26336;DHT22;14047;50.936;4.654;2022-10-01T06:08:14;13.70;99.90
26336;DHT22;14047;50.936;4.654;2022-10-01T06:10:40;13.70;99.90
26336;DHT22;14047;50.936;4.654;2022-10-01T06:13:06;13.90;99.90
26336;DHT22;14047;50.936;4.654;2022-10-01T06:15:34;13.80;99.90
26336;DHT22;14047;50.936;4.654;2022-10-01T06:18:05;13.90;99.90
26336;DHT22;14047;50.936;4.654;2022-10-01T06:20:32;14.00;99.90
26336;DHT22;14047;50.936;4.654;2022-10-01T06:22:57;14.00;99.90
26336;DHT22;14047;50.936;4.654;2022-10-01T06:25:24;14.00;99.90
26336;DHT22;14047;50.936;4.654;2022-10-01T06:27:54;14.00;99.90
26336;DHT22;14047;50.936;4.654;2022-10-01T06:30:23;14.10;99.90
26336;DHT22;14047;50.936;4.654;2022-10-01T06:32:52;14.10;99.90
26336;DHT22;14047;50.936;4.654;2022-10-01T06:35:17;14.20;99.90
26336;DHT22;14047;50.936;4.654;2022-10-01T06:37:45;14.20;99.90
26336;DHT22;14047;50.936;4.654;2022-10-01T06:40:11;14.20;99.90
26336;DHT22;14047;50.936;4.654;2022-10-01T06:42:37;14.20;99.90
26336;DHT22;14047;50.936;4.654;2022-10-01T06:45:03;14.20;99.90
26336;DHT22;14047;50.936;4.654;2022-10-01T06:47:29;14.20;99.90
26336;DHT22;14047;50.936;4.654;2022-10-01T06:49:54;14.30;99.90
26336;DHT22;14047;50.936;4.654;2022-10-01T06:52:20;14.30;99.90
26336;DHT22;14047;50.936;4.654;2022-10-01T06:55:04;14.40;99.90
26336;DHT22;14047;50.936;4.654;2022-10-01T06:57:30;14.40;99.90
26336;DHT22;14047;50.936;4.654;2022-10-01T06:59:58;14.40;99.90
26336;DHT22;14047;50.936;4.654;2022-10-01T07:02:26;14.40;99.90
26336;DHT22;14047;50.936;4.654;2022-10-01T07:04:55;14.40;99.90
26336;DHT22;14047;50.936;4.654;2022-10-01T07:07:31;14.40;99.90
26336;DHT22;14047;50.936;4.654;2022-10-01T07:09:57;14.40;99.90
26336;DHT22;14047;50.936;4.654;2022-10-01T07:12:23;14.20;99.90
26336;DHT22;14047;50.936;4.654;2022-10-01T07:14:49;14.30;99.90
26336;DHT22;14047;50.936;4.654;2022-10-01T07:17:15;14.40;99.90
26336;DHT22;14047;50.936;4.654;2022-10-01T07:19:41;14.50;99.90
26336;DHT22;14047;50.936;4.654;2022-10-01T07:22:06;14.70;99.90
26336;DHT22;14047;50.936;4.654;2022-10-01T07:24:32;14.70;99.90
26336;DHT22;14047;50.936;4.654;2022-10-01T07:26:58;14.70;99.90
26336;DHT22;14047;50.936;4.654;2022-10-01T07:29:24;14.80;99.90
26336;DHT22;14047;50.936;4.654;2022-10-01T07:31:50;15.00;99.90
26336;DHT22;14047;50.936;4.654;2022-10-01T07:34:20;15.20;99.90
26336;DHT22;14047;50.936;4.654;2022-10-01T07:36:49;15.20;99.90
26336;DHT22;14047;50.936;4.654;2022-10-01T07:39:15;15.30;99.90
26336;DHT22;14047;50.936;4.654;2022-10-01T07:41:41;15.30;99.90
26336;DHT22;14047;50.936;4.654;2022-10-01T07:44:07;15.40;99.90
26336;DHT22;14047;50.936;4.654;2022-10-01T07:46:33;15.40;99.90
26336;DHT22;14047;50.936;4.654;2022-10-01T07:48:58;15.50;99.90
26336;DHT22;14047;50.936;4.654;2022-10-01T07:51:24;15.50;99.90
26336;DHT22;14047;50.936;4.654;2022-10-01T07:53:51;15.60;99.90
26336;DHT22;14047;50.936;4.654;2022-10-01T07:56:16;15.60;99.90
26336;DHT22;14047;50.936;4.654;2022-10-01T07:58:42;15.70;99.90
26336;DHT22;14047;50.936;4.654;2022-10-01T08:01:08;15.80;99.90
26336;DHT22;14047;50.936;4.654;2022-10-01T08:03:34;15.80;99.90
26336;DHT22;14047;50.936;4.654;2022-10-01T08:06:00;15.90;99.90
26336;DHT22;14047;50.936;4.654;2022-10-01T08:08:29;16.00;99.90
26336;DHT22;14047;50.936;4.654;2022-10-01T08:10:55;16.00;99.90
26336;DHT22;14047;50.936;4.654;2022-10-01T08:13:21;16.00;99.90
26336;DHT22;14047;50.936;4.654;2022-10-01T08:15:50;16.10;99.90
26336;DHT22;14047;50.936;4.654;2022-10-01T08:18:22;16.10;99.90
26336;DHT22;14047;50.936;4.654;2022-10-01T08:20:48;16.20;99.90
26336;DHT22;14047;50.936;4.654;2022-10-01T08:23:15;16.20;99.90
26336;DHT22;14047;50.936;4.654;2022-10-01T08:25:42;16.30;99.90
26336;DHT22;14047;50.936;4.654;2022-10-01T08:28:09;16.30;99.90
26336;DHT22;14047;50.936;4.654;2022-10-01T08:30:36;16.40;99.90
26336;DHT22;14047;50.936;4.654;2022-10-01T08:33:04;16.40;99.90
26336;DHT22;14047;50.936;4.654;2022-10-01T08:35:30;16.60;99.90
26336;DHT22;14047;50.936;4.654;2022-10-01T08:38:05;16.70;99.90
26336;DHT22;14047;50.936;4.654;2022-10-01T08:40:39;16.80;99.90
26336;DHT22;14047;50.936;4.654;2022-10-01T08:43:08;16.80;99.90
26336;DHT22;14047;50.936;4.654;2022-10-01T08:45:41;16.90;99.90
26336;DHT22;14047;50.936;4.654;2022-10-01T08:54:06;16.90;99.90
26336;DHT22;14047;50.936;4.654;2022-10-01T08:56:38;17.00;99.90
26336;DHT22;14047;50.936;4.654;2022-10-01T09:01:39;17.30;99.90
26336;DHT22;14047;50.936;4.654;2022-10-01T09:04:05;17.20;99.90
26336;DHT22;14047;50.936;4.654;2022-10-01T09:06:30;17.10;99.90
26336;DHT22;14047;50.936;4.654;2022-10-01T09:09:17;17.30;99.90
26336;DHT22;14047;50.936;4.654;2022-10-01T09:14:47;17.20;99.90
26336;DHT22;14047;50.936;4.654;2022-10-01T09:22:39;17.40;99.90
26336;DHT22;14047;50.936;4.654;2022-10-01T09:27:32;17.90;99.90
26336;DHT22;14047;50.936;4.654;2022-10-01T09:30:06;17.80;99.90
26336;DHT22;14047;50.936;4.654;2022-10-01T09:32:40;17.90;99.90
26336;DHT22;14047;50.936;4.654;2022-10-01T09:35:29;18.00;99.90
26336;DHT22;14047;50.936;4.654;2022-10-01T09:38:02;18.00;99.90
26336;DHT22;14047;50.936;4.654;2022-10-01T09:40:38;17.80;99.90
26336;DHT22;14047;50.936;4.654;2022-10-01T09:43:08;17.60;99.90
26336;DHT22;14047;50.936;4.654;2022-10-01T09:45:36;17.50;99.90
26336;DHT22;14047;50.936;4.654;2022-10-01T09:51:12;17.30;99.90
26336;DHT22;14047;50.936;4.654;2022-10-01T09:56:53;17.20;99.90
26336;DHT22;14047;50.936;4.654;2022-10-01T10:02:30;17.10;99.90
26336;DHT22;14047;50.936;4.654;2022-10-01T10:05:04;16.90;99.90
26336;DHT22;14047;50.936;4.654;2022-10-01T10:07:30;16.80;99.90
26336;DHT22;14047;50.936;4.654;2022-10-01T10:10:21;17.00;99.90
26336;DHT22;14047;50.936;4.654;2022-10-01T10:12:55;17.00;99.90
26336;DHT22;14047;50.936;4.654;2022-10-01T10:15:22;17.00;99.90
26336;DHT22;14047;50.936;4.654;2022-10-01T10:17:51;17.10;99.90
26336;DHT22;14047;50.936;4.654;2022-10-01T10:20:27;17.30;99.90
26336;DHT22;14047;50.936;4.654;2022-10-01T10:23:05;17.40;99.90
26336;DHT22;14047;50.936;4.654;2022-10-01T10:25:31;17.60;99.90
26336;DHT22;14047;50.936;4.654;2022-10-01T10:27:56;17.80;99.90
26336;DHT22;14047;50.936;4.654;2022-10-01T10:30:24;17.90;99.90
26336;DHT22;14047;50.936;4.654;2022-10-01T10:32:52;17.90;99.90
26336;DHT22;14047;50.936;4.654;2022-10-01T10:35:23;17.90;99.90
26336;DHT22;14047;50.936;4.654;2022-10-01T10:37:54;17.90;99.90
26336;DHT22;14047;50.936;4.654;2022-10-01T10:40:33;17.80;99.90
26336;DHT22;14047;50.936;4.654;2022-10-01T10:43:04;17.70;99.90
26336;DHT22;14047;50.936;4.654;2022-10-01T10:45:36;17.70;99.90
26336;DHT22;14047;50.936;4.654;2022-10-01T10:48:05;17.70;99.90
26336;DHT22;14047;50.936;4.654;2022-10-01T10:50:37;17.70;99.90
26336;DHT22;14047;50.936;4.654;2022-10-01T10:53:18;17.80;99.90
26336;DHT22;14047;50.936;4.654;2022-10-01T10:55:58;18.00;99.90
26336;DHT22;14047;50.936;4.654;2022-10-01T10:58:34;18.30;99.90
26336;DHT22;14047;50.936;4.654;2022-10-01T11:01:08;18.40;99.90
26336;DHT22;14047;50.936;4.654;2022-10-01T11:03:43;18.60;99.90
26336;DHT22;14047;50.936;4.654;2022-10-01T11:06:12;18.80;99.90
26336;DHT22;14047;50.936;4.654;2022-10-01T11:08:39;19.10;99.90
26336;DHT22;14047;50.936;4.654;2022-10-01T11:11:33;19.10;99.90
26336;DHT22;14047;50.936;4.654;2022-10-01T11:31:00;18.00;99.90
26336;DHT22;14047;50.936;4.654;2022-10-01T11:37:01;18.20;99.90
26336;DHT22;14047;50.936;4.654;2022-10-01T11:39:30;18.40;99.90
26336;DHT22;14047;50.936;4.654;2022-10-01T11:42:11;18.60;99.90
26336;DHT22;14047;50.936;4.654;2022-10-01T11:44:52;18.50;99.90
26336;DHT22;14047;50.936;4.654;2022-10-01T11:47:32;18.50;99.90
26336;DHT22;14047;50.936;4.654;2022-10-01T11:50:12;18.50;99.90
26336;DHT22;14047;50.936;4.654;2022-10-01T11:53:02;18.50;99.90
26336;DHT22;14047;50.936;4.654;2022-10-01T11:55:41;18.70;99.90
26336;DHT22;14047;50.936;4.654;2022-10-01T11:58:44;18.80;99.90
26336;DHT22;14047;50.936;4.654;2022-10-01T12:01:17;18.90;99.90
26336;DHT22;14047;50.936;4.654;2022-10-01T12:06:23;19.40;99.90
26336;DHT22;14047;50.936;4.654;2022-10-01T12:09:40;19.60;99.90
26336;DHT22;14047;50.936;4.654;2022-10-01T12:11:57;19.50;99.90
26336;DHT22;14047;50.936;4.654;2022-10-01T12:17:31;19.20;99.90
26336;DHT22;14047;50.936;4.654;2022-10-01T12:20:00;19.20;99.90
26336;DHT22;14047;50.936;4.654;2022-10-01T12:22:33;19.20;99.90
26336;DHT22;14047;50.936;4.654;2022-10-01T12:25:00;19.20;99.90
26336;DHT22;14047;50.936;4.654;2022-10-01T12:28:05;19.30;99.90
26336;DHT22;14047;50.936;4.654;2022-10-01T12:30:45;19.20;99.90
26336;DHT22;14047;50.936;4.654;2022-10-01T12:33:30;19.30;99.90
26336;DHT22;14047;50.936;4.654;2022-10-01T12:38:54;19.50;99.90
26336;DHT22;14047;50.936;4.654;2022-10-01T12:42:24;19.50;99.90
26336;DHT22;14047;50.936;4.654;2022-10-01T12:48:13;19.20;99.90
26336;DHT22;14047;50.936;4.654;2022-10-01T12:50:51;19.30;99.90
26336;DHT22;14047;50.936;4.654;2022-10-01T12:56:21;19.50;99.90
26336;DHT22;14047;50.936;4.654;2022-10-01T12:59:18;19.60;99.90
26336;DHT22;14047;50.936;4.654;2022-10-01T13:15:13;20.60;99.90
26336;DHT22;14047;50.936;4.654;2022-10-01T13:17:49;20.50;99.90
26336;DHT22;14047;50.936;4.654;2022-10-01T13:28:25;19.70;99.90
26336;DHT22;14047;50.936;4.654;2022-10-01T13:30:58;19.50;99.90
26336;DHT22;14047;50.936;4.654;2022-10-01T13:33:30;19.50;99.90
26336;DHT22;14047;50.936;4.654;2022-10-01T13:36:04;19.40;99.90
26336;DHT22;14047;50.936;4.654;2022-10-01T13:38:41;19.10;99.90
26336;DHT22;14047;50.936;4.654;2022-10-01T13:41:18;19.10;99.90
26336;DHT22;14047;50.936;4.654;2022-10-01T13:43:53;19.20;99.90
26336;DHT22;14047;50.936;4.654;2022-10-01T13:46:29;19.40;99.90
26336;DHT22;14047;50.936;4.654;2022-10-01T13:49:04;19.60;99.90
26336;DHT22;14047;50.936;4.654;2022-10-01T13:51:36;19.80;99.90
26336;DHT22;14047;50.936;4.654;2022-10-01T13:54:07;20.00;99.90
26336;DHT22;14047;50.936;4.654;2022-10-01T13:56:37;20.10;99.90
26336;DHT22;14047;50.936;4.654;2022-10-01T13:59:32;20.20;99.90
26336;DHT22;14047;50.936;4.654;2022-10-01T14:01:58;20.30;99.90
26336;DHT22;14047;50.936;4.654;2022-10-01T14:04:39;20.40;99.90
26336;DHT22;14047;50.936;4.654;2022-10-01T14:07:18;20.40;99.90
26336;DHT22;14047;50.936;4.654;2022-10-01T14:09:56;20.30;99.90
26336;DHT22;14047;50.936;4.654;2022-10-01T14:12:30;20.50;99.90
26336;DHT22;14047;50.936;4.654;2022-10-01T14:15:50;20.60;99.90
26336;DHT22;14047;50.936;4.654;2022-10-01T14:18:29;20.70;99.90
26336;DHT22;14047;50.936;4.654;2022-10-01T14:21:49;20.60;99.90
26336;DHT22;14047;50.936;4.654;2022-10-01T14:24:26;20.20;99.90
26336;DHT22;14047;50.936;4.654;2022-10-01T14:29:47;20.00;99.90
26336;DHT22;14047;50.936;4.654;2022-10-01T14:35:23;19.50;99.90
26336;DHT22;14047;50.936;4.654;2022-10-01T14:38:00;19.40;99.90
26336;DHT22;14047;50.936;4.654;2022-10-01T14:40:35;19.40;99.90
26336;DHT22;14047;50.936;4.654;2022-10-01T14:43:13;19.50;99.90
26336;DHT22;14047;50.936;4.654;2022-10-01T14:45:56;19.60;99.90
26336;DHT22;14047;50.936;4.654;2022-10-01T14:48:25;19.70;99.90
26336;DHT22;14047;50.936;4.654;2022-10-01T14:50:53;19.80;99.90
26336;DHT22;14047;50.936;4.654;2022-10-01T14:53:22;19.90;99.90
26336;DHT22;14047;50.936;4.654;2022-10-01T14:55:51;19.80;99.90
26336;DHT22;14047;50.936;4.654;2022-10-01T14:58:38;19.80;99.90
26336;DHT22;14047;50.936;4.654;2022-10-01T15:01:05;19.90;99.90
26336;DHT22;14047;50.936;4.654;2022-10-01T15:03:36;20.00;99.90
26336;DHT22;14047;50.936;4.654;2022-10-01T15:06:05;19.90;99.90
26336;DHT22;14047;50.936;4.654;2022-10-01T15:08:44;20.00;99.90
26336;DHT22;14047;50.936;4.654;2022-10-01T15:11:19;19.80;99.90
26336;DHT22;14047;50.936;4.654;2022-10-01T15:13:47;19.80;99.90
26336;DHT22;14047;50.936;4.654;2022-10-01T15:16:19;19.60;99.90
26336;DHT22;14047;50.936;4.654;2022-10-01T15:18:51;19.40;99.90
26336;DHT22;14047;50.936;4.654;2022-10-01T15:21:54;19.20;99.90
26336;DHT22;14047;50.936;4.654;2022-10-01T15:24:34;19.30;99.90
26336;DHT22;14047;50.936;4.654;2022-10-01T15:27:01;19.30;99.90
26336;DHT22;14047;50.936;4.654;2022-10-01T15:29:27;19.40;99.90
26336;DHT22;14047;50.936;4.654;2022-10-01T15:31:55;19.40;99.90
26336;DHT22;14047;50.936;4.654;2022-10-01T15:34:23;19.40;99.90
26336;DHT22;14047;50.936;4.654;2022-10-01T15:36:50;19.30;99.90
26336;DHT22;14047;50.936;4.654;2022-10-01T15:39:22;19.20;99.90
26336;DHT22;14047;50.936;4.654;2022-10-01T15:41:52;19.00;99.90
26336;DHT22;14047;50.936;4.654;2022-10-01T15:55:23;18.70;99.90
26336;DHT22;14047;50.936;4.654;2022-10-01T16:05:46;18.60;99.90
26336;DHT22;14047;50.936;4.654;2022-10-01T16:08:16;18.60;99.90
26336;DHT22;14047;50.936;4.654;2022-10-01T16:10:46;18.50;99.90
26336;DHT22;14047;50.936;4.654;2022-10-01T16:13:33;18.40;99.90
26336;DHT22;14047;50.936;4.654;2022-10-01T16:18:38;18.30;99.90
26336;DHT22;14047;50.936;4.654;2022-10-01T16:21:05;18.30;99.90
26336;DHT22;14047;50.936;4.654;2022-10-01T16:23:45;18.30;99.90
26336;DHT22;14047;50.936;4.654;2022-10-01T16:26:34;18.30;99.90
26336;DHT22;14047;50.936;4.654;2022-10-01T16:29:18;18.20;99.90
26336;DHT22;14047;50.936;4.654;2022-10-01T16:31:44;18.20;99.90
26336;DHT22;14047;50.936;4.654;2022-10-01T16:34:12;18.30;99.90
26336;DHT22;14047;50.936;4.654;2022-10-01T16:36:38;18.30;99.90
26336;DHT22;14047;50.936;4.654;2022-10-01T16:39:03;18.30;99.90
26336;DHT22;14047;50.936;4.654;2022-10-01T16:41:31;18.40;99.90
26336;DHT22;14047;50.936;4.654;2022-10-01T16:43:58;18.40;99.90
26336;DHT22;14047;50.936;4.654;2022-10-01T16:46:24;18.40;99.90
26336;DHT22;14047;50.936;4.654;2022-10-01T16:48:50;18.30;99.90
26336;DHT22;14047;50.936;4.654;2022-10-01T16:51:16;18.20;99.90
26336;DHT22;14047;50.936;4.654;2022-10-01T16:53:42;18.20;99.90
26336;DHT22;14047;50.936;4.654;2022-10-01T16:56:09;18.30;99.90
26336;DHT22;14047;50.936;4.654;2022-10-01T16:58:38;18.30;99.90
26336;DHT22;14047;50.936;4.654;2022-10-01T17:01:05;18.20;99.90
26336;DHT22;14047;50.936;4.654;2022-10-01T17:03:33;18.20;99.90
26336;DHT22;14047;50.936;4.654;2022-10-01T17:05:59;18.00;99.90
26336;DHT22;14047;50.936;4.654;2022-10-01T17:08:25;18.00;99.90
26336;DHT22;14047;50.936;4.654;2022-10-01T17:11:50;18.00;99.90
26336;DHT22;14047;50.936;4.654;2022-10-01T17:14:17;18.00;99.90
26336;DHT22;14047;50.936;4.654;2022-10-01T17:16:45;18.00;99.90
26336;DHT22;14047;50.936;4.654;2022-10-01T17:19:15;17.60;99.90
26336;DHT22;14047;50.936;4.654;2022-10-01T17:21:40;17.50;99.90
26336;DHT22;14047;50.936;4.654;2022-10-01T17:24:06;17.40;99.90
26336;DHT22;14047;50.936;4.654;2022-10-01T17:26:36;17.30;99.90
26336;DHT22;14047;50.936;4.654;2022-10-01T17:29:02;17.30;99.90
26336;DHT22;14047;50.936;4.654;2022-10-01T17:31:28;17.20;99.90
26336;DHT22;14047;50.936;4.654;2022-10-01T17:33:54;17.10;99.90
26336;DHT22;14047;50.936;4.654;2022-10-01T17:36:20;17.10;99.90
26336;DHT22;14047;50.936;4.654;2022-10-01T17:38:45;17.00;99.90
26336;DHT22;14047;50.936;4.654;2022-10-01T17:41:11;17.10;99.90
26336;DHT22;14047;50.936;4.654;2022-10-01T17:43:37;17.00;99.90
26336;DHT22;14047;50.936;4.654;2022-10-01T17:46:03;17.00;99.90
26336;DHT22;14047;50.936;4.654;2022-10-01T17:48:29;17.10;99.90
26336;DHT22;14047;50.936;4.654;2022-10-01T17:51:03;17.00;99.90
26336;DHT22;14047;50.936;4.654;2022-10-01T17:53:31;17.10;99.90
26336;DHT22;14047;50.936;4.654;2022-10-01T17:55:57;17.00;99.90
26336;DHT22;14047;50.936;4.654;2022-10-01T17:58:23;17.00;99.90
26336;DHT22;14047;50.936;4.654;2022-10-01T18:00:49;17.00;99.90